Main page
METAR-TAF:

METAR-TAF

Airports :

Rodez, France

Rodez–Aveyron Airport

latitude: 44-24N, longitude: 002-29E, elevation: 581 m

Current weather observation

The report was made 26 minutes ago, at 03:30 UTC
Wind 1 kt from the West/Northwest
Temperature 3°C
Humidity 100%
Pressure 1023 hPa
Visibility: 2300 m
mist

METAR: LFCR 200330Z AUTO 29001KT 5000 2300 BR VV/// 03/03 Q1023 TEMPO 0300 FG

Time: 05:56 (03:56 UTC)

Forecast

The report was made 4 hours and 56 minutes ago, at 23:00 UTC
Forecast valid from 20 at 00 UTC to 20 at 24 UTC
Wind 4 kt from the West/Northwest
Visibility 10 km or more
no clouds below 1500 m and no cumulonimbus
Temporary
from 20 at 00 UTC to 20 at 08 UTC
Visibility: 3000 m
mist
Probability 30% :
Temporary
from 20 at 03 UTC to 20 at 07 UTC
Visibility: 0300 m
fog
Becoming
from 20 at 09 UTC to 20 at 11 UTC
Wind 5 kt from the North/Northwest

TAF: LFCR 192300Z 2000/2024 30004KT CAVOK TEMPO 2000/2008 3000 BR PROB30 TEMPO 2003/2007 0300 FG VV/// BECMG 2009/2011 34005KT

Weather observations and forecasts of more than 4000 airports (METAR and TAF reports).

The available stations are represented by yellow and red dots on the map.

Hover mouse over dot to see the name of the station.

Then click to see weather observations and forecasts.

To change the map : click on the green buttons with a black cross to zoom in, on the green button with a dash to zoom out, or on the green arrows for adjacent maps.


METAR-TAF: